createdAt,value
2018-07-11T00:01:21.262Z,98139.00
2018-07-11T00:03:52.872Z,98133.77
2018-07-11T00:06:22.676Z,98131.33
2018-07-11T00:08:51.171Z,98126.66
2018-07-11T00:11:19.690Z,98130.68
2018-07-11T00:13:48.738Z,98126.22
2018-07-11T00:16:17.764Z,98130.44
2018-07-11T00:18:46.271Z,98122.28
2018-07-11T00:21:15.286Z,98124.13
2018-07-11T00:23:43.818Z,98124.70
2018-07-11T00:26:12.811Z,98128.75
2018-07-11T00:28:41.868Z,98126.26
2018-07-11T00:31:10.347Z,98126.98
2018-07-11T00:33:39.252Z,98122.48
2018-07-11T00:36:08.448Z,98117.54
2018-07-11T00:38:36.985Z,98113.81
2018-07-11T00:41:06.567Z,98109.08
2018-07-11T00:43:35.809Z,98113.05
2018-07-11T00:46:05.350Z,98114.73
2018-07-11T00:48:34.354Z,98112.56
2018-07-11T00:51:03.508Z,98114.86
2018-07-11T00:53:34.176Z,98112.48
2018-07-11T00:56:03.305Z,98111.16
2018-07-11T00:58:34.455Z,98111.80
2018-07-11T01:01:10.870Z,98110.76
2018-07-11T01:03:43.664Z,98112.91
2018-07-11T01:06:12.500Z,98114.24
2018-07-11T01:08:41.802Z,98100.30
2018-07-11T01:11:14.428Z,98093.13
2018-07-11T01:13:44.090Z,98092.38
2018-07-11T01:16:13.828Z,98095.70
2018-07-11T01:18:50.663Z,98099.27
2018-07-11T01:21:19.321Z,98102.58
2018-07-11T01:23:47.881Z,98100.95
2018-07-11T01:26:16.736Z,98094.80
2018-07-11T01:28:45.651Z,98096.77
2018-07-11T01:31:14.223Z,98101.47
2018-07-11T01:33:42.878Z,98101.39
2018-07-11T01:36:11.332Z,98094.77
2018-07-11T01:38:39.869Z,98101.81
2018-07-11T01:41:08.779Z,98083.33
2018-07-11T01:43:37.259Z,98089.05
2018-07-11T01:46:06.182Z,98090.92
2018-07-11T01:48:34.706Z,98091.67
2018-07-11T01:51:03.520Z,98085.12
2018-07-11T01:53:32.116Z,98093.60
2018-07-11T01:56:00.879Z,98096.46
2018-07-11T01:58:29.566Z,98094.16
2018-07-11T02:00:58.102Z,98082.68
2018-07-11T02:03:26.671Z,98088.94
2018-07-11T02:05:55.480Z,98075.83
2018-07-11T02:08:25.316Z,98087.13
2018-07-11T02:10:54.146Z,98082.58
2018-07-11T02:13:22.681Z,98081.40
2018-07-11T02:15:52.271Z,98081.92
2018-07-11T02:18:24.548Z,98067.94
2018-07-11T02:20:53.465Z,98065.37
2018-07-11T02:23:22.744Z,98074.09
2018-07-11T02:25:51.315Z,98070.06
2018-07-11T02:28:20.548Z,98074.77
2018-07-11T02:30:49.082Z,98071.96
2018-07-11T02:33:17.604Z,98074.96
2018-07-11T02:35:46.088Z,98084.72
2018-07-11T02:38:14.994Z,98089.03
2018-07-11T02:40:44.426Z,98095.25
2018-07-11T02:43:12.871Z,98083.84
2018-07-11T02:45:41.345Z,98089.27
2018-07-11T02:48:09.832Z,98092.91
2018-07-11T02:50:38.340Z,98085.58
2018-07-11T02:53:06.827Z,98077.28
2018-07-11T02:55:35.329Z,98078.67
2018-07-11T02:58:03.801Z,98083.91
2018-07-11T03:00:32.236Z,98092.11
2018-07-11T03:03:00.735Z,98085.98
2018-07-11T03:05:29.180Z,98083.30
2018-07-11T03:07:57.700Z,98076.52
2018-07-11T03:10:26.171Z,98072.06
2018-07-11T03:12:55.026Z,98092.53
2018-07-11T03:15:23.478Z,98101.92
2018-07-11T03:17:51.925Z,98102.30
2018-07-11T03:20:20.428Z,98098.13
2018-07-11T03:22:49.529Z,98099.57
2018-07-11T03:25:18.035Z,98099.44
2018-07-11T03:27:47.210Z,98087.37
2018-07-11T03:30:15.728Z,98035.88
2018-07-11T03:32:44.164Z,98103.11
2018-07-11T03:35:12.575Z,98103.50
2018-07-11T03:37:41.096Z,98103.14
2018-07-11T03:40:09.515Z,98105.80
2018-07-11T03:42:38.267Z,98102.15
2018-07-11T03:45:07.087Z,98107.10
2018-07-11T03:47:36.083Z,98101.72
2018-07-11T03:50:04.596Z,98100.46
2018-07-11T03:52:33.054Z,98102.00
2018-07-11T03:55:01.511Z,98099.06
2018-07-11T03:57:29.998Z,98092.51
2018-07-11T03:59:58.452Z,98085.73
2018-07-11T04:02:26.935Z,98082.84
2018-07-11T04:04:55.394Z,98089.21
2018-07-11T04:07:23.819Z,98077.83
2018-07-11T04:09:54.172Z,98076.41
2018-07-11T04:12:22.577Z,98076.73
2018-07-11T04:14:51.047Z,98070.39
2018-07-11T04:17:19.489Z,98077.17
2018-07-11T04:19:48.248Z,98075.99
2018-07-11T04:22:16.696Z,98075.27
2018-07-11T04:24:45.180Z,98082.09
2018-07-11T04:27:13.627Z,98083.30
2018-07-11T04:29:42.089Z,98107.31
2018-07-11T04:32:10.545Z,98097.05
2018-07-11T04:34:39.050Z,98109.28
2018-07-11T04:37:07.496Z,98121.12
2018-07-11T04:39:35.965Z,98126.94
2018-07-11T04:42:04.444Z,98133.20
2018-07-11T04:44:33.380Z,98130.22
2018-07-11T04:47:01.851Z,98125.21
2018-07-11T04:49:30.296Z,98121.73
2018-07-11T04:51:58.764Z,98126.33
2018-07-11T04:54:27.339Z,98125.87
2018-07-11T04:56:55.801Z,98127.96
2018-07-11T04:59:24.214Z,98123.63
2018-07-11T05:01:52.683Z,98121.42
2018-07-11T05:04:21.201Z,98115.73
2018-07-11T05:06:49.698Z,98112.89
2018-07-11T05:09:18.108Z,98118.54
2018-07-11T05:11:46.567Z,98124.05
2018-07-11T05:14:15.003Z,98134.06
2018-07-11T05:16:43.482Z,98128.27
2018-07-11T05:19:11.888Z,98133.88
2018-07-11T05:21:40.347Z,98128.32
2018-07-11T05:24:08.752Z,98121.36
2018-07-11T05:26:37.195Z,98112.36
2018-07-11T05:29:05.785Z,98109.95
2018-07-11T05:31:34.262Z,98107.92
2018-07-11T05:34:02.732Z,98113.96
2018-07-11T05:36:31.445Z,98110.00
2018-07-11T05:39:00.018Z,98107.55
2018-07-11T05:41:28.849Z,98104.47
2018-07-11T05:43:57.797Z,98114.18
2018-07-11T05:46:26.279Z,98106.33
2018-07-11T05:48:54.691Z,98103.57
2018-07-11T05:51:23.163Z,98106.55
2018-07-11T05:53:51.679Z,98101.98
2018-07-11T05:56:20.116Z,98098.84
2018-07-11T05:58:48.607Z,98104.66
2018-07-11T06:01:17.094Z,98109.52
2018-07-11T06:03:45.499Z,98108.89
2018-07-11T06:06:13.969Z,98108.82
2018-07-11T06:08:42.384Z,98116.09
2018-07-11T06:11:22.302Z,98114.58
2018-07-11T06:13:51.607Z,98111.97
2018-07-11T06:16:20.083Z,98104.55
2018-07-11T06:18:49.001Z,98109.75
2018-07-11T06:21:17.476Z,98115.29
2018-07-11T06:23:46.015Z,98125.16
2018-07-11T06:26:14.426Z,98126.00
2018-07-11T06:28:42.859Z,98116.16
2018-07-11T06:31:12.155Z,98122.20
2018-07-11T06:33:40.602Z,98129.34
2018-07-11T06:36:09.223Z,98125.18
2018-07-11T06:38:38.389Z,98131.97
2018-07-11T06:41:06.900Z,98125.20
2018-07-11T06:43:35.636Z,98121.41
2018-07-11T06:46:04.334Z,98129.94
2018-07-11T06:48:32.795Z,98124.87
2018-07-11T06:51:01.244Z,98134.98
2018-07-11T06:53:29.772Z,98139.34
2018-07-11T06:55:58.226Z,98142.04
2018-07-11T06:58:26.659Z,98146.17
2018-07-11T07:00:55.252Z,98151.22
2018-07-11T07:03:23.727Z,98152.80
2018-07-11T07:05:52.197Z,98151.39
2018-07-11T07:08:20.647Z,98156.56
2018-07-11T07:10:49.348Z,98153.48
2018-07-11T07:13:17.902Z,98151.89
2018-07-11T07:15:46.347Z,98145.31
2018-07-11T07:18:14.790Z,98144.71
2018-07-11T07:20:43.228Z,98142.98
2018-07-11T07:23:11.689Z,98140.30
2018-07-11T07:25:40.273Z,98142.28
2018-07-11T07:28:08.691Z,98142.96
2018-07-11T07:30:37.173Z,98143.47
2018-07-11T07:33:05.632Z,98148.78
2018-07-11T07:35:34.098Z,98149.97
2018-07-11T07:38:02.622Z,98148.19
2018-07-11T07:40:31.222Z,98141.55
2018-07-11T07:42:59.854Z,98144.19
2018-07-11T07:45:28.360Z,98148.43
2018-07-11T07:47:57.568Z,98148.43
2018-07-11T07:50:26.105Z,98159.91
2018-07-11T07:52:54.937Z,98154.58
2018-07-11T07:55:23.391Z,98155.15
2018-07-11T07:57:52.045Z,98153.59
2018-07-11T08:00:20.907Z,98152.05
2018-07-11T08:02:49.402Z,98151.50
2018-07-11T08:05:17.889Z,98147.77
2018-07-11T08:07:46.338Z,98147.17
2018-07-11T08:10:14.792Z,98152.92
2018-07-11T08:12:43.363Z,98159.66
2018-07-11T08:15:11.701Z,98163.71
2018-07-11T08:17:40.201Z,98162.95
2018-07-11T08:20:08.623Z,98148.48
2018-07-11T08:24:49.712Z,98155.16
2018-07-11T08:29:34.775Z,98155.81
2018-07-11T08:32:50.276Z,98160.30
2018-07-11T08:35:28.735Z,98167.86
2018-07-11T08:40:11.338Z,98160.56
2018-07-11T08:46:05.632Z,98161.56
2018-07-11T08:48:49.200Z,98157.61
2018-07-11T08:51:32.344Z,98160.44
2018-07-11T08:56:18.231Z,98167.95
2018-07-11T09:00:59.216Z,98173.52
2018-07-11T09:03:38.744Z,98178.77
2018-07-11T09:06:17.007Z,98176.07
2018-07-11T09:09:27.635Z,98168.67
2018-07-11T09:12:09.039Z,98175.00
2018-07-11T09:17:22.064Z,98172.09
2018-07-11T09:20:16.911Z,98176.72
2018-07-11T09:23:26.371Z,98172.67
2018-07-11T09:25:54.821Z,98168.28
2018-07-11T09:28:23.269Z,98162.09
2018-07-11T09:30:51.768Z,98167.58
2018-07-11T09:33:20.483Z,98158.92
2018-07-11T09:35:48.907Z,98163.32
2018-07-11T09:38:17.651Z,98164.48
2018-07-11T09:40:46.180Z,98163.71
2018-07-11T09:43:14.652Z,98176.66
2018-07-11T09:45:43.572Z,98171.22
2018-07-11T09:48:12.032Z,98172.26
2018-07-11T09:50:40.537Z,98177.78
2018-07-11T09:53:09.044Z,98172.07
2018-07-11T09:55:37.789Z,98174.92
2018-07-11T09:58:06.474Z,98175.57
2018-07-11T10:00:40.022Z,98189.77
2018-07-11T10:03:08.466Z,98189.18
2018-07-11T10:05:36.984Z,98184.33
2018-07-11T10:08:08.863Z,98185.11
2018-07-11T10:10:37.511Z,98185.95
2018-07-11T10:13:06.443Z,98189.52
2018-07-11T10:15:34.916Z,98190.43
2018-07-11T10:18:03.427Z,98187.44
2018-07-11T10:20:31.930Z,98180.02
2018-07-11T10:23:00.431Z,98184.81
2018-07-11T10:25:28.879Z,98181.41
2018-07-11T10:28:08.772Z,98188.29
2018-07-11T10:30:37.240Z,98188.44
2018-07-11T10:33:05.693Z,98184.89
2018-07-11T10:35:34.139Z,98185.58
2018-07-11T10:38:02.675Z,98182.14
2018-07-11T10:40:31.126Z,98184.47
2018-07-11T10:42:59.628Z,98188.75
2018-07-11T10:45:28.725Z,98183.14
2018-07-11T10:47:57.164Z,98190.27
2018-07-11T10:50:25.650Z,98189.70
2018-07-11T10:52:54.549Z,98185.52
2018-07-11T10:55:23.034Z,98179.33
2018-07-11T10:57:51.972Z,98186.17
2018-07-11T11:00:36.669Z,98190.70
2018-07-11T11:02:55.333Z,98190.52
2018-07-11T11:05:23.827Z,98191.45
2018-07-11T11:07:53.041Z,98188.52
2018-07-11T11:10:21.623Z,98187.66
2018-07-11T11:12:50.089Z,98192.64
2018-07-11T11:15:18.769Z,98177.98
2018-07-11T11:17:47.187Z,98178.50
2018-07-11T11:20:15.599Z,98182.44
2018-07-11T11:22:44.336Z,98183.38
2018-07-11T11:25:12.796Z,98174.58
2018-07-11T11:27:41.416Z,98184.77
2018-07-11T11:30:09.843Z,98181.28
2018-07-11T11:32:38.479Z,98181.91
2018-07-11T11:35:07.023Z,98179.02
2018-07-11T11:37:35.447Z,98184.05
2018-07-11T11:40:03.970Z,98174.47
2018-07-11T11:42:32.732Z,98184.92
2018-07-11T11:45:00.912Z,98179.97
2018-07-11T11:47:29.368Z,98174.70
2018-07-11T11:49:58.406Z,98174.96
2018-07-11T11:52:26.864Z,98180.89
2018-07-11T11:54:55.376Z,98177.28
2018-07-11T11:57:24.074Z,98174.61
2018-07-11T11:59:52.761Z,98182.25
2018-07-11T12:02:21.440Z,98175.71
2018-07-11T12:04:50.119Z,98178.22
2018-07-11T12:07:18.650Z,98180.16
2018-07-11T12:09:47.262Z,98180.45
2018-07-11T12:12:15.673Z,98172.81
2018-07-11T12:14:44.168Z,98178.16
2018-07-11T12:17:12.983Z,98175.85
2018-07-11T12:19:42.417Z,98174.66
2018-07-11T12:22:10.880Z,98163.66
2018-07-11T12:24:39.328Z,98169.84
2018-07-11T12:27:08.276Z,98162.48
2018-07-11T12:29:36.740Z,98166.99
2018-07-11T12:32:05.219Z,98161.00
2018-07-11T12:34:33.680Z,98166.56
2018-07-11T12:37:02.228Z,98157.20
2018-07-11T12:39:30.747Z,98140.59
2018-07-11T12:41:59.271Z,98152.02
2018-07-11T12:44:28.316Z,98154.88
2018-07-11T12:46:56.754Z,98160.22
2018-07-11T12:49:25.611Z,98158.31
2018-07-11T12:51:54.551Z,98162.31
2018-07-11T12:54:22.996Z,98163.14
2018-07-11T12:56:52.665Z,98165.33
2018-07-11T12:59:22.891Z,98161.14
2018-07-11T13:01:51.433Z,98161.30
2018-07-11T13:04:19.950Z,98164.33
2018-07-11T13:06:48.420Z,98162.33
2018-07-11T13:09:16.888Z,98162.66
2018-07-11T13:11:45.337Z,98161.98
2018-07-11T13:14:13.795Z,98164.75
2018-07-11T13:16:42.240Z,98164.16
2018-07-11T13:19:10.876Z,98150.39
2018-07-11T13:21:39.318Z,98149.34
2018-07-11T13:26:35.231Z,98154.08
2018-07-11T13:29:03.700Z,98138.12
2018-07-11T13:31:32.132Z,98146.82
2018-07-11T13:34:00.596Z,98140.47
2018-07-11T13:36:29.055Z,98139.89
2018-07-11T13:38:57.651Z,98133.84
2018-07-11T13:41:26.198Z,98130.86
2018-07-11T13:43:54.669Z,98121.38
2018-07-11T13:46:23.144Z,98120.41
2018-07-11T13:48:51.628Z,98117.86
2018-07-11T13:51:20.083Z,98119.94
2018-07-11T13:53:48.582Z,98116.11
2018-07-11T13:56:17.020Z,98114.12
2018-07-11T13:58:45.815Z,98107.34
2018-07-11T14:01:14.286Z,98113.73
2018-07-11T14:03:43.058Z,98102.97
2018-07-11T14:06:11.809Z,98106.47
2018-07-11T14:08:40.325Z,98110.89
2018-07-11T14:11:08.815Z,98109.32
2018-07-11T14:13:37.230Z,98107.06
2018-07-11T14:16:05.731Z,98102.30
2018-07-11T14:18:34.179Z,98099.48
2018-07-11T14:21:02.662Z,98100.42
2018-07-11T14:23:40.381Z,98098.70
2018-07-11T14:26:11.135Z,98090.05
2018-07-11T14:28:45.492Z,98094.16
2018-07-11T14:31:14.558Z,98083.89
2018-07-11T14:33:48.747Z,98090.52
2018-07-11T14:36:17.848Z,98090.46
2018-07-11T14:38:46.864Z,98094.68
2018-07-11T14:41:15.287Z,98100.04
2018-07-11T14:43:44.099Z,98098.54
2018-07-11T14:46:14.326Z,98094.25
2018-07-11T14:48:42.787Z,98093.28
2018-07-11T14:51:11.613Z,98095.91
2018-07-11T14:53:40.096Z,98095.81
2018-07-11T14:56:08.906Z,98098.38
2018-07-11T14:58:37.342Z,98103.15
2018-07-11T15:01:05.838Z,98096.23
2018-07-11T15:03:34.326Z,98093.84
2018-07-11T15:06:02.868Z,98086.30
2018-07-11T15:08:31.451Z,98096.47
2018-07-11T15:10:59.882Z,98091.88
2018-07-11T15:13:28.363Z,98095.33
2018-07-11T15:15:56.776Z,98101.67
2018-07-11T15:18:25.236Z,98099.05
2018-07-11T15:20:54.715Z,98098.83
2018-07-11T15:23:23.239Z,98102.16
2018-07-11T15:25:51.807Z,98103.48
2018-07-11T15:28:20.268Z,98104.41
2018-07-11T15:30:48.775Z,98099.05
2018-07-11T15:33:17.545Z,98096.29
2018-07-11T15:35:46.735Z,98103.15
2018-07-11T15:38:15.230Z,98106.33
2018-07-11T15:40:44.128Z,98115.12
2018-07-11T15:43:12.710Z,98115.65
2018-07-11T15:45:41.184Z,98103.00
2018-07-11T15:48:11.394Z,98092.34
2018-07-11T15:50:40.597Z,98069.23
2018-07-11T15:53:09.106Z,98052.24
2018-07-11T15:55:37.644Z,98084.81
2018-07-11T15:58:11.629Z,98104.36
2018-07-11T16:00:42.103Z,98099.12
2018-07-11T16:03:13.697Z,98102.16
2018-07-11T16:05:45.213Z,98110.62
2018-07-11T16:08:17.988Z,98102.31
2018-07-11T16:10:53.990Z,98103.67
2018-07-11T16:13:22.806Z,98099.23
2018-07-11T16:15:51.560Z,98103.39
2018-07-11T16:18:20.399Z,98103.13
2018-07-11T16:20:48.826Z,98105.35
2018-07-11T16:23:17.302Z,98108.77
2018-07-11T16:25:45.854Z,98110.31
2018-07-11T16:28:15.144Z,98110.90
2018-07-11T16:30:44.142Z,98116.19
2018-07-11T16:33:12.624Z,98117.94
2018-07-11T16:35:41.127Z,98112.59
2018-07-11T16:38:09.663Z,98119.95
2018-07-11T16:40:38.443Z,98115.30
2018-07-11T16:43:06.984Z,98122.06
2018-07-11T16:45:35.490Z,98114.81
2018-07-11T16:48:04.233Z,98121.33
2018-07-11T16:50:32.739Z,98115.86
2018-07-11T16:53:01.746Z,98118.84
2018-07-11T16:55:32.887Z,98116.33
2018-07-11T16:58:01.603Z,98139.13
2018-07-11T17:00:32.986Z,98258.45
2018-07-11T17:03:06.964Z,98234.81
2018-07-11T17:06:11.517Z,98196.41
2018-07-11T17:08:47.660Z,98167.48
2018-07-11T17:11:21.224Z,98155.75
2018-07-11T17:14:05.768Z,98140.92
2018-07-11T17:16:39.663Z,98126.15
2018-07-11T17:19:10.409Z,98130.23
2018-07-11T17:21:43.394Z,98131.96
2018-07-11T17:24:13.564Z,98128.69
2018-07-11T17:26:44.086Z,98134.98
2018-07-11T17:29:18.643Z,98129.00
2018-07-11T17:31:48.212Z,98133.78
2018-07-11T17:34:17.660Z,98134.80
2018-07-11T17:36:46.178Z,98136.56
2018-07-11T17:39:16.184Z,98134.28
2018-07-11T17:41:47.379Z,98145.77
2018-07-11T17:44:16.785Z,98144.19
2018-07-11T17:46:46.491Z,98144.52
2018-07-11T17:49:18.502Z,98149.13
2018-07-11T17:52:18.015Z,98152.01
2018-07-11T17:55:23.280Z,98157.86
2018-07-11T17:57:55.876Z,98160.62
2018-07-11T18:00:46.392Z,98161.13
2018-07-11T18:05:28.552Z,98161.83
2018-07-11T18:08:01.175Z,98171.91
2018-07-11T18:10:49.384Z,98173.34
2018-07-11T18:13:28.937Z,98173.11
2018-07-11T18:17:06.428Z,98171.79
2018-07-11T18:19:47.726Z,98174.84
2018-07-11T18:24:30.668Z,98174.45
2018-07-11T18:27:06.638Z,98176.53
2018-07-11T18:29:44.939Z,98177.19
2018-07-11T18:32:50.594Z,98168.59
2018-07-11T18:35:26.568Z,98183.00
2018-07-11T18:37:57.590Z,98183.34
2018-07-11T18:40:43.025Z,98187.63
2018-07-11T18:43:22.611Z,98188.11
2018-07-11T18:46:13.535Z,98190.30
2018-07-11T18:48:56.606Z,98183.54
2018-07-11T18:51:34.452Z,98181.66
2018-07-11T18:54:11.695Z,98189.24
2018-07-11T18:56:53.178Z,98189.63
2018-07-11T18:59:32.765Z,98188.17
2018-07-11T19:02:27.576Z,98190.35
2018-07-11T19:05:06.849Z,98189.69
2018-07-11T19:07:42.636Z,98204.98
2018-07-11T19:10:16.284Z,98207.80
2018-07-11T19:13:01.195Z,98205.98
2018-07-11T19:15:46.456Z,98217.50
2018-07-11T19:18:23.864Z,98213.12
2018-07-11T19:22:00.950Z,98224.59
2018-07-11T19:24:38.776Z,98230.48
2018-07-11T19:27:17.229Z,98229.95
2018-07-11T19:29:56.678Z,98226.97
2018-07-11T19:32:33.183Z,98233.13
2018-07-11T19:35:16.276Z,98231.48
2018-07-11T19:38:08.732Z,98237.95
2018-07-11T19:40:47.955Z,98246.95
2018-07-11T19:43:44.690Z,98248.02
2018-07-11T19:46:37.168Z,98248.11
2018-07-11T19:49:21.243Z,98247.20
2018-07-11T19:52:08.889Z,98251.50
2018-07-11T19:55:30.499Z,98252.02
2018-07-11T19:57:59.791Z,98242.89
2018-07-11T20:03:14.276Z,98248.83
2018-07-11T20:05:53.341Z,98245.78
2018-07-11T20:08:11.633Z,98248.73
2018-07-11T20:10:40.535Z,98253.75
2018-07-11T20:13:09.007Z,98249.46
2018-07-11T20:15:37.891Z,98248.03
2018-07-11T20:18:06.808Z,98247.40
2018-07-11T20:20:35.183Z,98251.72
2018-07-11T20:23:03.863Z,98239.55
2018-07-11T20:25:32.346Z,98244.09
2018-07-11T20:28:00.858Z,98246.89
2018-07-11T20:30:29.573Z,98243.20
2018-07-11T20:32:57.957Z,98240.27
2018-07-11T20:35:26.839Z,98240.80
2018-07-11T20:37:55.344Z,98244.41
2018-07-11T20:40:23.798Z,98247.56
2018-07-11T20:42:52.939Z,98254.53
2018-07-11T20:45:21.421Z,98253.16
2018-07-11T20:47:49.929Z,98254.84
2018-07-11T20:50:19.335Z,98257.18
2018-07-11T20:52:47.783Z,98257.45
2018-07-11T20:55:16.255Z,98264.83
2018-07-11T20:57:44.727Z,98267.72
2018-07-11T21:00:24.400Z,98275.54
2018-07-11T21:03:04.495Z,98260.89
2018-07-11T21:05:47.454Z,98271.61
2018-07-11T21:10:28.047Z,98274.33
2018-07-11T21:13:13.429Z,98266.80
2018-07-11T21:15:55.496Z,98268.43
2018-07-11T21:18:37.551Z,98271.42
2018-07-11T21:21:06.014Z,98276.83
2018-07-11T21:23:34.485Z,98276.99
2018-07-11T21:26:03.205Z,98276.44
2018-07-11T21:28:31.738Z,98280.66
2018-07-11T21:31:00.744Z,98279.79
2018-07-11T21:33:29.617Z,98276.20
2018-07-11T21:35:58.090Z,98276.74
2018-07-11T21:38:27.073Z,98290.89
2018-07-11T21:40:55.550Z,98295.95
2018-07-11T21:43:24.088Z,98290.42
2018-07-11T21:45:52.613Z,98285.03
2018-07-11T21:48:21.093Z,98293.00
2018-07-11T21:50:49.564Z,98292.43
2018-07-11T21:53:17.999Z,98292.08
2018-07-11T21:55:46.652Z,98299.23
2018-07-11T21:58:15.171Z,98303.44
2018-07-11T22:00:43.751Z,98299.30
2018-07-11T22:03:12.202Z,98297.33
2018-07-11T22:05:40.699Z,98302.58
2018-07-11T22:08:09.760Z,98307.57
2018-07-11T22:10:39.619Z,98302.55
2018-07-11T22:13:08.711Z,98298.50
2018-07-11T22:15:37.226Z,98301.61
2018-07-11T22:18:17.106Z,98301.64
2018-07-11T22:20:44.347Z,98304.52
2018-07-11T22:23:11.612Z,98301.70
2018-07-11T22:25:38.877Z,98305.39
2018-07-11T22:28:06.425Z,98301.70
2018-07-11T22:30:34.031Z,98297.23
2018-07-11T22:33:01.269Z,98296.02
2018-07-11T22:35:28.514Z,98294.28
2018-07-11T22:37:55.756Z,98296.68
2018-07-11T22:40:22.988Z,98296.64
2018-07-11T22:42:50.453Z,98299.63
2018-07-11T22:45:17.691Z,98302.26
2018-07-11T22:47:44.970Z,98299.08
2018-07-11T22:50:12.196Z,98300.41
2018-07-11T22:52:39.558Z,98298.66
2018-07-11T22:55:06.775Z,98300.28
2018-07-11T22:57:34.044Z,98297.67
2018-07-11T23:00:01.460Z,98291.49
2018-07-11T23:02:28.695Z,98295.11
2018-07-11T23:04:55.997Z,98293.84
2018-07-11T23:07:23.231Z,98294.03
2018-07-11T23:09:50.474Z,98288.58
2018-07-11T23:12:17.731Z,98290.23
2018-07-11T23:14:44.975Z,98289.27
2018-07-11T23:17:12.838Z,98298.84
2018-07-11T23:19:43.202Z,98289.43
2018-07-11T23:22:10.751Z,98290.39
2018-07-11T23:24:38.337Z,98287.95
2018-07-11T23:27:05.592Z,98296.77
2018-07-11T23:29:32.866Z,98287.41
2018-07-11T23:32:00.213Z,98283.84
2018-07-11T23:34:27.478Z,98290.39
2018-07-11T23:36:55.399Z,98291.84
2018-07-11T23:39:22.659Z,98296.34
2018-07-11T23:41:50.120Z,98288.71
2018-07-11T23:44:17.379Z,98293.48
2018-07-11T23:46:44.608Z,98288.68
2018-07-11T23:49:11.877Z,98293.41
2018-07-11T23:51:39.096Z,98292.56
2018-07-11T23:54:06.386Z,98298.41
2018-07-11T23:56:33.629Z,98299.69
2018-07-11T23:59:00.874Z,98296.02
